• Join FlightAware (Why Join?)
  • Login
  • US Flag 
06:22AM EST


 

Airport Tracker/Info


-or-


 

Live Flight TrackerFlight Track Log ✈ SWA830 ✈ 06-Jun-2014 ✈ KHOU - KJAN

Flight Track Log - Related Links

Times and Time Zones

All times are in EDT time to prevent confusion due to time zone crossing. See the SWA830 flight status page for this flight to view local times or setup timezone preferences in your user account.

Time Position Orientation Groundspeed Altitude Reporting Facility
EDT Latitude Longitude Course Direction KTS MPH feet Rate Location/Type
10:37PM 29.6353 -95.2892 197° South 139 160 700  Level Houston Center
10:37PM 29.6253 -95.2928 197° South 145 167 1,500 2,127 Climbing Houston Center
10:38PM 29.6464 -95.2492 61° Northeast 239 275 3,500 2,074 Climbing Houston Center
10:39PM 29.6633 -95.2553 343° North 230 265 4,300 3,148 Climbing Houston Center
10:39PM 29.7089 -95.2658 349° North 240 276 6,700 3,443 Climbing Houston Center
10:40PM 29.7286 -95.2711 347° North 238 274 7,800 3,443 Climbing Houston Center
10:40PM 29.7803 -95.2883 344° North 251 289 10,200 3,049 Climbing Houston Center
10:41PM 29.7981 -95.2908 353° North 251 289 10,900 2,519 Climbing Houston Center
10:42PM 29.8672 -95.2536 25° Northeast 270 311 13,600 2,195 Climbing Houston Center
10:43PM 29.9533 -95.2111 23° Northeast 329 379 15,400 2,195 Climbing Houston Center
10:44PM 30.0472 -95.1606 25° Northeast 364 419 18,100 2,656 Climbing Houston Center
10:45PM 30.1461 -95.1075 25° Northeast 383 441 20,800 2,656 Climbing Houston Center
10:46PM 30.2403 -95.0411 31° Northeast 396 456 23,500 2,557 Climbing Houston Center
10:47PM 30.2958 -94.9239 61° Northeast 412 474 26,000 2,164 Climbing Houston Center
10:48PM 30.3508 -94.8011 63° Northeast 421 484 27,900 1,951 Climbing Houston Center
10:49PM 30.4225 -94.6472 62° Northeast 442 509 30,000 1,918 Climbing Houston Center
10:50PM 30.4753 -94.5356 61° Northeast 461 531 31,800 2,016 Climbing Houston Center
10:51PM 30.5456 -94.3833 62° Northeast 463 533 34,100 1,902 Climbing Houston Center
10:52PM 30.6053 -94.2544 62° Northeast 460 529 35,700 1,475 Climbing Houston Center
10:53PM 30.6653 -94.1222 62° Northeast 460 529 37,100 1,377 Climbing Houston Center
10:54PM 30.7269 -93.9892 62° Northeast 460 529 38,500 934 Climbing Houston Center
10:55PM 30.7833 -93.8553 64° Northeast 460 529 39,000 246 Climbing Houston Center
10:56PM 30.8356 -93.7197 66° East 460 529 39,000  Level Houston Center
10:57PM 30.8878 -93.5850 66° East 457 526 39,000  Level Houston Center
10:58PM 30.9403 -93.4511 65° Northeast 455 524 39,000  Level Houston Center
10:59PM 30.9925 -93.3172 66° East 454 522 39,000  Level Houston Center
11:00PM 31.0439 -93.1819 66° East 455 524 39,000  Level Houston Center
11:01PM 31.0947 -93.0494 66° East 452 520 39,000  Level Houston Center
11:02PM 31.1478 -92.9158 65° Northeast 452 520 39,000  Level Houston Center
11:03PM 31.1981 -92.7822 66° East 452 520 39,000  Level Houston Center
11:04PM 31.2489 -92.6458 66° East 458 527 39,000  Level Houston Center
11:05PM 31.3183 -92.4886 63° Northeast 457 526 39,000  Level Houston Center
11:06PM 31.3797 -92.3583 61° Northeast 457 526 39,000  Level Houston Center
11:07PM 31.4442 -92.2281 60° Northeast 459 528 39,000 -541 Level Houston Center
11:08PM 31.5053 -92.0978 61° Northeast 459 528 37,900 -1,721 Descending Houston Center
11:09PM 31.5628 -91.9744 61° Northeast 458 527 35,500 -2,656 Descending Houston Center
11:10PM 31.6239 -91.8450 61° Northeast 457 526 32,500 -2,902 Descending Houston Center
11:11PM 31.6867 -91.7119 61° Northeast 466 536 29,600 -2,656 Descending Houston Center
11:12PM 31.7481 -91.5803 61° Northeast 464 534 27,100 -2,656 Descending Houston Center
11:13PM 31.8186 -91.4264 62° Northeast 448 516 24,200 -2,557 Descending Houston Center
11:14PM 31.8739 -91.3044 62° Northeast 428 493 21,900 -2,262 Descending Houston Center
11:15PM 31.9283 -91.1864 61° Northeast 416 479 19,600 -2,110 Descending Houston Center
11:16PM 31.9508 -91.1392 61° Northeast 410 472 18,700 -2,129 Descending Memphis Center
11:16PM 31.9822 -91.0725 61° Northeast 402 463 17,400 -2,323 Descending Houston Center
11:17PM 32.0331 -90.9619 62° Northeast 390 449 15,100 -2,213 Descending Houston Center
11:18PM 32.0817 -90.8531 62° Northeast 380 437 12,900 -2,234 Descending Houston Center
11:19PM 32.1114 -90.7878 62° Northeast 370 426 11,600 -1,667 Descending Memphis Center
11:20PM 32.1567 -90.6878 62° Northeast 364 419 10,400 -1,220 Descending Memphis Center
11:21PM 32.1958 -90.5994 62° Northeast 321 369 9,200 -1,328 Descending Memphis Center
11:22PM 32.2339 -90.5158 62° Northeast 298 343 7,700 -1,426 Descending Memphis Center
11:23PM 32.2717 -90.4333 62° Northeast 293 337 6,300 -1,395 Descending Memphis Center
11:23PM 32.2878 -90.3969 62° Northeast 283 326 5,700 -1,377 Descending Memphis Center
11:24PM 32.3083 -90.3517 62° Northeast 291 335 4,900 -1,237 Descending Memphis Center
11:25PM 32.3425 -90.2736 63° Northeast 281 323 3,700 -1,279 Descending Memphis Center
11:26PM 32.3769 -90.1992 61° Northeast 270 311 2,300 -934 Descending Memphis Center
11:27PM 32.3944 -90.1375 71° East 237 273 1,800 -585 Descending Memphis Center
11:27PM 32.3822 -90.1156 123° Southeast 165 190 1,500 -787 Descending Memphis Center
11:28PM 32.3614 -90.0922 137° Southeast 181 208 1,000 -713 Descending Memphis Center
11:29PM 32.3278 -90.0767 159° South 151 174 300 -689 Descending Memphis Center